sensor_id;sensor_type;location;lat;lon;timestamp;P1;durP1;ratioP1;P2;durP2;ratioP2
5133;SDS011;2585;48.696;10.066;2022-12-13T00:01:29;46.97;;;19.35;;
5133;SDS011;2585;48.696;10.066;2022-12-13T00:03:58;43.15;;;20.67;;
5133;SDS011;2585;48.696;10.066;2022-12-13T00:06:26;51.00;;;20.33;;
5133;SDS011;2585;48.696;10.066;2022-12-13T00:08:54;62.53;;;21.35;;
5133;SDS011;2585;48.696;10.066;2022-12-13T00:11:21;51.03;;;20.52;;
5133;SDS011;2585;48.696;10.066;2022-12-13T00:13:48;62.00;;;21.30;;
5133;SDS011;2585;48.696;10.066;2022-12-13T00:16:16;47.63;;;21.45;;
5133;SDS011;2585;48.696;10.066;2022-12-13T00:18:49;47.28;;;19.65;;
5133;SDS011;2585;48.696;10.066;2022-12-13T00:21:18;50.65;;;21.00;;
5133;SDS011;2585;48.696;10.066;2022-12-13T00:23:46;52.63;;;22.45;;
5133;SDS011;2585;48.696;10.066;2022-12-13T00:26:17;47.58;;;21.00;;
5133;SDS011;2585;48.696;10.066;2022-12-13T00:28:48;45.40;;;20.17;;
5133;SDS011;2585;48.696;10.066;2022-12-13T00:31:16;58.60;;;19.73;;
5133;SDS011;2585;48.696;10.066;2022-12-13T00:34:04;46.92;;;21.30;;
5133;SDS011;2585;48.696;10.066;2022-12-13T00:36:31;45.95;;;20.10;;
5133;SDS011;2585;48.696;10.066;2022-12-13T00:38:58;42.10;;;19.75;;
5133;SDS011;2585;48.696;10.066;2022-12-13T00:41:29;45.03;;;19.63;;
5133;SDS011;2585;48.696;10.066;2022-12-13T00:43:57;43.25;;;20.13;;
5133;SDS011;2585;48.696;10.066;2022-12-13T00:46:25;42.83;;;18.67;;
5133;SDS011;2585;48.696;10.066;2022-12-13T00:48:56;51.70;;;21.63;;
5133;SDS011;2585;48.696;10.066;2022-12-13T00:51:25;52.92;;;20.58;;
5133;SDS011;2585;48.696;10.066;2022-12-13T00:53:54;49.65;;;20.55;;
5133;SDS011;2585;48.696;10.066;2022-12-13T00:56:22;53.85;;;21.42;;
5133;SDS011;2585;48.696;10.066;2022-12-13T00:58:51;50.33;;;20.98;;
5133;SDS011;2585;48.696;10.066;2022-12-13T01:01:21;47.92;;;18.85;;
5133;SDS011;2585;48.696;10.066;2022-12-13T01:03:50;38.55;;;19.08;;
5133;SDS011;2585;48.696;10.066;2022-12-13T01:06:20;49.17;;;20.27;;
5133;SDS011;2585;48.696;10.066;2022-12-13T01:08:48;46.10;;;20.10;;
5133;SDS011;2585;48.696;10.066;2022-12-13T01:11:16;46.05;;;19.38;;
5133;SDS011;2585;48.696;10.066;2022-12-13T01:13:43;60.95;;;20.13;;
5133;SDS011;2585;48.696;10.066;2022-12-13T01:16:10;37.72;;;16.92;;
5133;SDS011;2585;48.696;10.066;2022-12-13T01:18:38;39.15;;;18.58;;
5133;SDS011;2585;48.696;10.066;2022-12-13T01:23:38;37.03;;;15.88;;
5133;SDS011;2585;48.696;10.066;2022-12-13T01:26:06;45.55;;;17.67;;
5133;SDS011;2585;48.696;10.066;2022-12-13T01:28:40;36.88;;;16.52;;
5133;SDS011;2585;48.696;10.066;2022-12-13T01:31:08;40.50;;;16.60;;
5133;SDS011;2585;48.696;10.066;2022-12-13T01:33:40;40.83;;;17.52;;
5133;SDS011;2585;48.696;10.066;2022-12-13T01:36:08;41.83;;;18.17;;
5133;SDS011;2585;48.696;10.066;2022-12-13T01:38:40;40.33;;;15.95;;
5133;SDS011;2585;48.696;10.066;2022-12-13T01:41:08;39.17;;;15.55;;
5133;SDS011;2585;48.696;10.066;2022-12-13T01:46:13;44.25;;;16.85;;
5133;SDS011;2585;48.696;10.066;2022-12-13T01:48:58;37.80;;;15.43;;
5133;SDS011;2585;48.696;10.066;2022-12-13T01:51:35;33.92;;;14.38;;
5133;SDS011;2585;48.696;10.066;2022-12-13T01:54:13;37.90;;;16.00;;
5133;SDS011;2585;48.696;10.066;2022-12-13T01:56:48;38.03;;;15.63;;
5133;SDS011;2585;48.696;10.066;2022-12-13T01:59:26;39.90;;;16.35;;
5133;SDS011;2585;48.696;10.066;2022-12-13T02:01:53;41.13;;;16.05;;
5133;SDS011;2585;48.696;10.066;2022-12-13T02:04:30;36.58;;;15.38;;
5133;SDS011;2585;48.696;10.066;2022-12-13T02:07:11;35.00;;;15.27;;
5133;SDS011;2585;48.696;10.066;2022-12-13T02:09:48;38.00;;;15.38;;
5133;SDS011;2585;48.696;10.066;2022-12-13T02:12:23;33.17;;;15.30;;
5133;SDS011;2585;48.696;10.066;2022-12-13T02:14:55;34.97;;;14.75;;
5133;SDS011;2585;48.696;10.066;2022-12-13T02:18:21;39.40;;;14.60;;
5133;SDS011;2585;48.696;10.066;2022-12-13T02:29:09;34.05;;;14.65;;
5133;SDS011;2585;48.696;10.066;2022-12-13T02:34:38;36.78;;;16.50;;
5133;SDS011;2585;48.696;10.066;2022-12-13T02:37:26;39.88;;;15.60;;
5133;SDS011;2585;48.696;10.066;2022-12-13T02:43:00;34.47;;;14.30;;
5133;SDS011;2585;48.696;10.066;2022-12-13T02:45:58;38.20;;;16.95;;
5133;SDS011;2585;48.696;10.066;2022-12-13T02:48:28;30.15;;;13.82;;
5133;SDS011;2585;48.696;10.066;2022-12-13T02:51:01;40.83;;;15.38;;
5133;SDS011;2585;48.696;10.066;2022-12-13T02:53:29;34.00;;;14.48;;
5133;SDS011;2585;48.696;10.066;2022-12-13T02:55:59;39.08;;;14.90;;
5133;SDS011;2585;48.696;10.066;2022-12-13T02:58:28;35.20;;;15.45;;
5133;SDS011;2585;48.696;10.066;2022-12-13T03:17:48;34.33;;;14.07;;
5133;SDS011;2585;48.696;10.066;2022-12-13T03:20:21;30.70;;;14.00;;
5133;SDS011;2585;48.696;10.066;2022-12-13T03:22:51;31.65;;;13.90;;
5133;SDS011;2585;48.696;10.066;2022-12-13T03:25:19;35.70;;;15.93;;
5133;SDS011;2585;48.696;10.066;2022-12-13T03:27:58;35.72;;;15.20;;
5133;SDS011;2585;48.696;10.066;2022-12-13T03:30:29;31.42;;;14.27;;
5133;SDS011;2585;48.696;10.066;2022-12-13T03:32:57;33.72;;;14.88;;
5133;SDS011;2585;48.696;10.066;2022-12-13T03:35:24;30.25;;;13.45;;
5133;SDS011;2585;48.696;10.066;2022-12-13T03:38:00;32.53;;;14.73;;
5133;SDS011;2585;48.696;10.066;2022-12-13T03:40:27;32.13;;;14.27;;
5133;SDS011;2585;48.696;10.066;2022-12-13T03:42:55;43.08;;;14.45;;
5133;SDS011;2585;48.696;10.066;2022-12-13T03:45:22;33.22;;;14.30;;
5133;SDS011;2585;48.696;10.066;2022-12-13T03:47:49;30.88;;;13.45;;
5133;SDS011;2585;48.696;10.066;2022-12-13T03:50:16;31.45;;;14.80;;
5133;SDS011;2585;48.696;10.066;2022-12-13T03:52:56;37.20;;;16.17;;
5133;SDS011;2585;48.696;10.066;2022-12-13T03:55:24;40.88;;;15.18;;
5133;SDS011;2585;48.696;10.066;2022-12-13T03:57:51;36.40;;;13.82;;
5133;SDS011;2585;48.696;10.066;2022-12-13T04:00:18;38.42;;;13.70;;
5133;SDS011;2585;48.696;10.066;2022-12-13T04:02:46;28.55;;;12.75;;
5133;SDS011;2585;48.696;10.066;2022-12-13T04:05:12;29.02;;;14.65;;
5133;SDS011;2585;48.696;10.066;2022-12-13T04:07:40;29.73;;;14.35;;
5133;SDS011;2585;48.696;10.066;2022-12-13T04:10:14;37.55;;;16.42;;
5133;SDS011;2585;48.696;10.066;2022-12-13T04:12:52;23.92;;;10.52;;
5133;SDS011;2585;48.696;10.066;2022-12-13T04:15:38;38.53;;;12.52;;
5133;SDS011;2585;48.696;10.066;2022-12-13T04:18:05;32.50;;;15.20;;
5133;SDS011;2585;48.696;10.066;2022-12-13T04:20:32;33.72;;;13.80;;
5133;SDS011;2585;48.696;10.066;2022-12-13T04:22:59;34.78;;;13.93;;
5133;SDS011;2585;48.696;10.066;2022-12-13T04:25:35;41.10;;;14.77;;
5133;SDS011;2585;48.696;10.066;2022-12-13T04:28:02;35.72;;;13.55;;
5133;SDS011;2585;48.696;10.066;2022-12-13T04:30:29;30.95;;;12.55;;
5133;SDS011;2585;48.696;10.066;2022-12-13T04:32:56;40.40;;;16.02;;
5133;SDS011;2585;48.696;10.066;2022-12-13T04:35:23;28.63;;;13.98;;
5133;SDS011;2585;48.696;10.066;2022-12-13T04:37:50;46.35;;;16.08;;
5133;SDS011;2585;48.696;10.066;2022-12-13T04:40:16;31.52;;;13.98;;
5133;SDS011;2585;48.696;10.066;2022-12-13T04:42:47;36.15;;;14.50;;
5133;SDS011;2585;48.696;10.066;2022-12-13T04:45:20;33.15;;;13.85;;
5133;SDS011;2585;48.696;10.066;2022-12-13T04:47:48;37.15;;;14.20;;
5133;SDS011;2585;48.696;10.066;2022-12-13T04:50:15;30.98;;;14.48;;
5133;SDS011;2585;48.696;10.066;2022-12-13T04:52:42;32.67;;;13.85;;
5133;SDS011;2585;48.696;10.066;2022-12-13T04:55:10;30.95;;;13.63;;
5133;SDS011;2585;48.696;10.066;2022-12-13T04:57:37;30.40;;;13.50;;
5133;SDS011;2585;48.696;10.066;2022-12-13T05:00:05;25.55;;;13.13;;
5133;SDS011;2585;48.696;10.066;2022-12-13T05:02:34;29.00;;;12.43;;
5133;SDS011;2585;48.696;10.066;2022-12-13T05:05:01;27.10;;;13.13;;
5133;SDS011;2585;48.696;10.066;2022-12-13T05:07:28;30.67;;;14.10;;
5133;SDS011;2585;48.696;10.066;2022-12-13T05:09:55;33.22;;;11.93;;
5133;SDS011;2585;48.696;10.066;2022-12-13T05:12:22;31.60;;;11.02;;
5133;SDS011;2585;48.696;10.066;2022-12-13T05:14:51;30.48;;;13.57;;
5133;SDS011;2585;48.696;10.066;2022-12-13T05:17:19;40.88;;;13.52;;
5133;SDS011;2585;48.696;10.066;2022-12-13T05:19:46;29.55;;;13.05;;
5133;SDS011;2585;48.696;10.066;2022-12-13T05:22:13;36.90;;;15.43;;
5133;SDS011;2585;48.696;10.066;2022-12-13T05:24:46;29.83;;;13.38;;
5133;SDS011;2585;48.696;10.066;2022-12-13T05:27:14;33.40;;;14.32;;
5133;SDS011;2585;48.696;10.066;2022-12-13T05:29:51;59.88;;;14.90;;
5133;SDS011;2585;48.696;10.066;2022-12-13T05:32:30;34.92;;;15.35;;
5133;SDS011;2585;48.696;10.066;2022-12-13T05:35:12;33.00;;;16.70;;
5133;SDS011;2585;48.696;10.066;2022-12-13T05:37:48;47.15;;;17.23;;
5133;SDS011;2585;48.696;10.066;2022-12-13T05:40:19;42.55;;;16.48;;
5133;SDS011;2585;48.696;10.066;2022-12-13T05:42:46;40.33;;;16.42;;
5133;SDS011;2585;48.696;10.066;2022-12-13T05:45:13;33.25;;;15.15;;
5133;SDS011;2585;48.696;10.066;2022-12-13T05:47:43;40.17;;;15.30;;
5133;SDS011;2585;48.696;10.066;2022-12-13T05:50:10;42.97;;;15.50;;
5133;SDS011;2585;48.696;10.066;2022-12-13T05:52:38;50.05;;;15.88;;
5133;SDS011;2585;48.696;10.066;2022-12-13T05:55:05;41.05;;;16.20;;
5133;SDS011;2585;48.696;10.066;2022-12-13T05:57:32;42.95;;;16.05;;
5133;SDS011;2585;48.696;10.066;2022-12-13T05:59:59;37.50;;;15.10;;
5133;SDS011;2585;48.696;10.066;2022-12-13T06:02:26;32.40;;;15.90;;
5133;SDS011;2585;48.696;10.066;2022-12-13T06:04:53;37.58;;;15.18;;
5133;SDS011;2585;48.696;10.066;2022-12-13T06:07:20;32.58;;;14.55;;
5133;SDS011;2585;48.696;10.066;2022-12-13T06:09:47;29.92;;;14.25;;
5133;SDS011;2585;48.696;10.066;2022-12-13T06:12:14;33.67;;;13.65;;
5133;SDS011;2585;48.696;10.066;2022-12-13T06:14:57;29.23;;;13.40;;
5133;SDS011;2585;48.696;10.066;2022-12-13T06:17:33;29.73;;;13.57;;
5133;SDS011;2585;48.696;10.066;2022-12-13T06:20:04;32.58;;;12.75;;
5133;SDS011;2585;48.696;10.066;2022-12-13T06:22:50;32.50;;;13.27;;
5133;SDS011;2585;48.696;10.066;2022-12-13T06:25:18;24.48;;;12.05;;
5133;SDS011;2585;48.696;10.066;2022-12-13T06:27:56;43.53;;;12.48;;
5133;SDS011;2585;48.696;10.066;2022-12-13T06:30:26;27.10;;;12.70;;
5133;SDS011;2585;48.696;10.066;2022-12-13T06:32:54;37.13;;;14.95;;
5133;SDS011;2585;48.696;10.066;2022-12-13T06:35:20;30.33;;;13.02;;
5133;SDS011;2585;48.696;10.066;2022-12-13T06:37:55;38.15;;;15.82;;
5133;SDS011;2585;48.696;10.066;2022-12-13T06:40:30;32.67;;;14.68;;
5133;SDS011;2585;48.696;10.066;2022-12-13T06:42:58;40.55;;;15.07;;
5133;SDS011;2585;48.696;10.066;2022-12-13T06:45:25;44.60;;;16.25;;
5133;SDS011;2585;48.696;10.066;2022-12-13T06:47:52;40.95;;;15.18;;
5133;SDS011;2585;48.696;10.066;2022-12-13T06:50:20;44.65;;;16.75;;
5133;SDS011;2585;48.696;10.066;2022-12-13T06:52:47;41.60;;;15.85;;
5133;SDS011;2585;48.696;10.066;2022-12-13T06:55:14;44.15;;;16.92;;
5133;SDS011;2585;48.696;10.066;2022-12-13T06:57:49;41.63;;;18.55;;
5133;SDS011;2585;48.696;10.066;2022-12-13T07:00:17;35.63;;;16.20;;
5133;SDS011;2585;48.696;10.066;2022-12-13T07:02:54;37.55;;;14.55;;
5133;SDS011;2585;48.696;10.066;2022-12-13T07:05:21;43.60;;;16.20;;
5133;SDS011;2585;48.696;10.066;2022-12-13T07:07:48;41.15;;;17.70;;
5133;SDS011;2585;48.696;10.066;2022-12-13T07:10:15;49.25;;;17.77;;
5133;SDS011;2585;48.696;10.066;2022-12-13T07:12:47;42.42;;;18.17;;
5133;SDS011;2585;48.696;10.066;2022-12-13T07:15:15;42.08;;;17.05;;
5133;SDS011;2585;48.696;10.066;2022-12-13T07:17:41;45.05;;;16.73;;
5133;SDS011;2585;48.696;10.066;2022-12-13T07:20:08;49.50;;;19.13;;
5133;SDS011;2585;48.696;10.066;2022-12-13T07:22:36;38.30;;;17.75;;
5133;SDS011;2585;48.696;10.066;2022-12-13T07:25:12;45.20;;;17.35;;
5133;SDS011;2585;48.696;10.066;2022-12-13T07:28:02;47.95;;;16.90;;
5133;SDS011;2585;48.696;10.066;2022-12-13T07:30:39;37.85;;;17.00;;
5133;SDS011;2585;48.696;10.066;2022-12-13T07:33:07;44.00;;;16.63;;
5133;SDS011;2585;48.696;10.066;2022-12-13T07:35:34;50.00;;;20.63;;
5133;SDS011;2585;48.696;10.066;2022-12-13T07:38:03;55.20;;;18.90;;
5133;SDS011;2585;48.696;10.066;2022-12-13T07:40:34;55.15;;;19.88;;
5133;SDS011;2585;48.696;10.066;2022-12-13T07:43:03;59.75;;;20.33;;
5133;SDS011;2585;48.696;10.066;2022-12-13T07:45:31;52.50;;;19.95;;
5133;SDS011;2585;48.696;10.066;2022-12-13T07:47:58;52.15;;;21.75;;
5133;SDS011;2585;48.696;10.066;2022-12-13T07:50:28;49.28;;;19.70;;
5133;SDS011;2585;48.696;10.066;2022-12-13T07:53:03;45.78;;;20.23;;
5133;SDS011;2585;48.696;10.066;2022-12-13T07:55:32;47.90;;;20.30;;
5133;SDS011;2585;48.696;10.066;2022-12-13T07:58:06;50.25;;;19.55;;
5133;SDS011;2585;48.696;10.066;2022-12-13T08:00:38;52.65;;;20.13;;
5133;SDS011;2585;48.696;10.066;2022-12-13T08:03:12;57.47;;;19.55;;
5133;SDS011;2585;48.696;10.066;2022-12-13T08:06:01;47.42;;;20.52;;
5133;SDS011;2585;48.696;10.066;2022-12-13T08:08:32;48.15;;;18.13;;
5133;SDS011;2585;48.696;10.066;2022-12-13T08:11:03;40.97;;;18.13;;
5133;SDS011;2585;48.696;10.066;2022-12-13T08:13:35;48.70;;;19.20;;
5133;SDS011;2585;48.696;10.066;2022-12-13T08:16:04;40.00;;;17.38;;
5133;SDS011;2585;48.696;10.066;2022-12-13T08:18:53;46.55;;;19.52;;
5133;SDS011;2585;48.696;10.066;2022-12-13T08:21:35;43.70;;;18.90;;
5133;SDS011;2585;48.696;10.066;2022-12-13T08:27:02;41.50;;;17.83;;
5133;SDS011;2585;48.696;10.066;2022-12-13T08:29:30;37.80;;;17.00;;
5133;SDS011;2585;48.696;10.066;2022-12-13T08:32:05;46.00;;;18.08;;
5133;SDS011;2585;48.696;10.066;2022-12-13T08:34:36;52.75;;;21.48;;
5133;SDS011;2585;48.696;10.066;2022-12-13T08:37:03;41.00;;;18.63;;
5133;SDS011;2585;48.696;10.066;2022-12-13T08:39:31;48.35;;;20.10;;
5133;SDS011;2585;48.696;10.066;2022-12-13T08:42:03;48.50;;;19.75;;
5133;SDS011;2585;48.696;10.066;2022-12-13T08:44:47;35.35;;;16.05;;
5133;SDS011;2585;48.696;10.066;2022-12-13T08:47:16;47.47;;;17.67;;
5133;SDS011;2585;48.696;10.066;2022-12-13T08:49:56;38.13;;;15.93;;
5133;SDS011;2585;48.696;10.066;2022-12-13T08:52:33;38.65;;;17.02;;
5133;SDS011;2585;48.696;10.066;2022-12-13T08:55:06;37.63;;;15.70;;
5133;SDS011;2585;48.696;10.066;2022-12-13T08:57:34;33.15;;;16.00;;
5133;SDS011;2585;48.696;10.066;2022-12-13T09:00:05;33.65;;;16.52;;
5133;SDS011;2585;48.696;10.066;2022-12-13T09:02:33;29.55;;;13.73;;
5133;SDS011;2585;48.696;10.066;2022-12-13T09:05:04;27.10;;;13.43;;
5133;SDS011;2585;48.696;10.066;2022-12-13T09:07:32;38.95;;;14.25;;
5133;SDS011;2585;48.696;10.066;2022-12-13T09:10:02;27.23;;;13.80;;
5133;SDS011;2585;48.696;10.066;2022-12-13T09:12:49;34.13;;;14.32;;
5133;SDS011;2585;48.696;10.066;2022-12-13T09:15:16;37.40;;;15.15;;
5133;SDS011;2585;48.696;10.066;2022-12-13T09:17:48;29.58;;;13.30;;
5133;SDS011;2585;48.696;10.066;2022-12-13T09:20:18;31.13;;;14.38;;
5133;SDS011;2585;48.696;10.066;2022-12-13T09:22:55;31.48;;;14.57;;
5133;SDS011;2585;48.696;10.066;2022-12-13T09:25:27;33.83;;;14.45;;
5133;SDS011;2585;48.696;10.066;2022-12-13T09:28:03;29.70;;;14.13;;
5133;SDS011;2585;48.696;10.066;2022-12-13T09:30:31;26.70;;;13.38;;
5133;SDS011;2585;48.696;10.066;2022-12-13T09:32:58;28.67;;;14.50;;
5133;SDS011;2585;48.696;10.066;2022-12-13T09:35:44;26.35;;;12.60;;
5133;SDS011;2585;48.696;10.066;2022-12-13T09:38:12;31.30;;;14.10;;
5133;SDS011;2585;48.696;10.066;2022-12-13T09:40:39;26.38;;;13.23;;
5133;SDS011;2585;48.696;10.066;2022-12-13T09:43:11;30.55;;;14.00;;
5133;SDS011;2585;48.696;10.066;2022-12-13T09:45:56;25.25;;;12.88;;
5133;SDS011;2585;48.696;10.066;2022-12-13T09:48:26;28.65;;;12.52;;
5133;SDS011;2585;48.696;10.066;2022-12-13T09:51:00;29.73;;;14.13;;
5133;SDS011;2585;48.696;10.066;2022-12-13T09:53:47;28.75;;;14.05;;
5133;SDS011;2585;48.696;10.066;2022-12-13T09:56:17;27.30;;;12.98;;
5133;SDS011;2585;48.696;10.066;2022-12-13T09:58:49;27.45;;;13.02;;
5133;SDS011;2585;48.696;10.066;2022-12-13T10:01:24;26.30;;;12.30;;
5133;SDS011;2585;48.696;10.066;2022-12-13T10:03:51;25.52;;;13.23;;
5133;SDS011;2585;48.696;10.066;2022-12-13T10:06:22;23.85;;;12.43;;
5133;SDS011;2585;48.696;10.066;2022-12-13T10:08:54;28.10;;;14.30;;
5133;SDS011;2585;48.696;10.066;2022-12-13T10:11:24;21.40;;;11.25;;
5133;SDS011;2585;48.696;10.066;2022-12-13T10:14:02;24.08;;;11.40;;
5133;SDS011;2585;48.696;10.066;2022-12-13T10:17:12;24.58;;;11.35;;
5133;SDS011;2585;48.696;10.066;2022-12-13T10:19:37;29.05;;;13.73;;
5133;SDS011;2585;48.696;10.066;2022-12-13T10:22:07;26.40;;;11.95;;
5133;SDS011;2585;48.696;10.066;2022-12-13T10:27:19;24.48;;;12.93;;
5133;SDS011;2585;48.696;10.066;2022-12-13T10:32:54;20.92;;;11.65;;
5133;SDS011;2585;48.696;10.066;2022-12-13T10:35:24;20.83;;;10.25;;
5133;SDS011;2585;48.696;10.066;2022-12-13T10:38:25;20.92;;;11.95;;
5133;SDS011;2585;48.696;10.066;2022-12-13T10:40:57;21.33;;;10.68;;
5133;SDS011;2585;48.696;10.066;2022-12-13T10:43:26;22.17;;;10.15;;
5133;SDS011;2585;48.696;10.066;2022-12-13T10:48:35;21.33;;;10.65;;
5133;SDS011;2585;48.696;10.066;2022-12-13T10:51:05;21.65;;;11.18;;
5133;SDS011;2585;48.696;10.066;2022-12-13T10:53:37;19.85;;;11.27;;
5133;SDS011;2585;48.696;10.066;2022-12-13T10:56:13;22.20;;;8.63;;
5133;SDS011;2585;48.696;10.066;2022-12-13T10:58:50;28.23;;;12.02;;
5133;SDS011;2585;48.696;10.066;2022-12-13T11:01:42;21.08;;;10.88;;
5133;SDS011;2585;48.696;10.066;2022-12-13T11:04:22;18.15;;;10.77;;
5133;SDS011;2585;48.696;10.066;2022-12-13T11:06:53;18.65;;;9.48;;
5133;SDS011;2585;48.696;10.066;2022-12-13T11:09:29;19.13;;;9.38;;
5133;SDS011;2585;48.696;10.066;2022-12-13T11:12:10;19.17;;;11.02;;
5133;SDS011;2585;48.696;10.066;2022-12-13T11:14:47;16.70;;;8.68;;
5133;SDS011;2585;48.696;10.066;2022-12-13T11:17:26;16.83;;;9.40;;
5133;SDS011;2585;48.696;10.066;2022-12-13T11:19:56;19.88;;;9.90;;
5133;SDS011;2585;48.696;10.066;2022-12-13T11:22:33;22.10;;;9.95;;
5133;SDS011;2585;48.696;10.066;2022-12-13T11:27:48;20.13;;;9.63;;
5133;SDS011;2585;48.696;10.066;2022-12-13T11:36:17;20.85;;;10.45;;
5133;SDS011;2585;48.696;10.066;2022-12-13T11:39:17;19.95;;;10.98;;
5133;SDS011;2585;48.696;10.066;2022-12-13T11:45:21;18.88;;;9.63;;
5133;SDS011;2585;48.696;10.066;2022-12-13T11:50:35;19.50;;;9.02;;
5133;SDS011;2585;48.696;10.066;2022-12-13T11:55:54;18.70;;;9.85;;
5133;SDS011;2585;48.696;10.066;2022-12-13T11:58:42;16.30;;;9.13;;
5133;SDS011;2585;48.696;10.066;2022-12-13T12:01:36;18.73;;;9.40;;
5133;SDS011;2585;48.696;10.066;2022-12-13T12:06:57;21.23;;;10.73;;
5133;SDS011;2585;48.696;10.066;2022-12-13T12:09:50;20.42;;;10.75;;
5133;SDS011;2585;48.696;10.066;2022-12-13T12:12:29;19.05;;;10.07;;
5133;SDS011;2585;48.696;10.066;2022-12-13T12:15:04;17.30;;;10.07;;
5133;SDS011;2585;48.696;10.066;2022-12-13T12:17:42;19.25;;;10.25;;
5133;SDS011;2585;48.696;10.066;2022-12-13T12:20:11;18.52;;;9.85;;
5133;SDS011;2585;48.696;10.066;2022-12-13T12:26:00;18.60;;;9.90;;
5133;SDS011;2585;48.696;10.066;2022-12-13T12:31:31;16.23;;;8.52;;
5133;SDS011;2585;48.696;10.066;2022-12-13T12:34:30;17.60;;;8.80;;
5133;SDS011;2585;48.696;10.066;2022-12-13T12:39:58;18.80;;;9.57;;
5133;SDS011;2585;48.696;10.066;2022-12-13T12:45:27;13.55;;;9.30;;
5133;SDS011;2585;48.696;10.066;2022-12-13T12:51:26;16.40;;;9.10;;
5133;SDS011;2585;48.696;10.066;2022-12-13T13:02:36;14.90;;;7.80;;
5133;SDS011;2585;48.696;10.066;2022-12-13T13:05:11;15.88;;;8.50;;
5133;SDS011;2585;48.696;10.066;2022-12-13T13:07:52;19.65;;;8.55;;
5133;SDS011;2585;48.696;10.066;2022-12-13T13:10:22;15.82;;;8.50;;
5133;SDS011;2585;48.696;10.066;2022-12-13T13:12:52;21.13;;;9.98;;
5133;SDS011;2585;48.696;10.066;2022-12-13T13:18:07;16.40;;;8.88;;
5133;SDS011;2585;48.696;10.066;2022-12-13T13:26:30;13.73;;;8.23;;
5133;SDS011;2585;48.696;10.066;2022-12-13T13:32:04;15.15;;;7.82;;
5133;SDS011;2585;48.696;10.066;2022-12-13T13:34:41;17.70;;;9.52;;
5133;SDS011;2585;48.696;10.066;2022-12-13T13:39:56;14.32;;;8.63;;
5133;SDS011;2585;48.696;10.066;2022-12-13T13:42:26;16.98;;;8.23;;
5133;SDS011;2585;48.696;10.066;2022-12-13T13:45:01;21.52;;;8.48;;
5133;SDS011;2585;48.696;10.066;2022-12-13T13:47:56;20.60;;;9.88;;
5133;SDS011;2585;48.696;10.066;2022-12-13T14:21:37;15.07;;;7.88;;
5133;SDS011;2585;48.696;10.066;2022-12-13T14:30:16;17.92;;;9.20;;
5133;SDS011;2585;48.696;10.066;2022-12-13T14:32:54;13.95;;;7.80;;
5133;SDS011;2585;48.696;10.066;2022-12-13T14:35:23;16.75;;;8.73;;
5133;SDS011;2585;48.696;10.066;2022-12-13T14:38:02;19.25;;;8.85;;
5133;SDS011;2585;48.696;10.066;2022-12-13T14:40:31;17.23;;;8.88;;
5133;SDS011;2585;48.696;10.066;2022-12-13T14:43:01;20.75;;;8.48;;
5133;SDS011;2585;48.696;10.066;2022-12-13T14:45:29;22.58;;;10.98;;
5133;SDS011;2585;48.696;10.066;2022-12-13T14:48:00;21.15;;;10.38;;
5133;SDS011;2585;48.696;10.066;2022-12-13T14:50:32;34.13;;;14.52;;
5133;SDS011;2585;48.696;10.066;2022-12-13T14:53:00;21.42;;;11.80;;
5133;SDS011;2585;48.696;10.066;2022-12-13T14:55:31;35.13;;;17.88;;
5133;SDS011;2585;48.696;10.066;2022-12-13T14:58:02;32.05;;;13.52;;
5133;SDS011;2585;48.696;10.066;2022-12-13T15:00:40;35.33;;;14.20;;
5133;SDS011;2585;48.696;10.066;2022-12-13T15:03:09;33.10;;;13.23;;
5133;SDS011;2585;48.696;10.066;2022-12-13T15:05:56;80.25;;;34.72;;
5133;SDS011;2585;48.696;10.066;2022-12-13T15:08:25;54.67;;;23.40;;
5133;SDS011;2585;48.696;10.066;2022-12-13T15:10:54;36.20;;;14.60;;
5133;SDS011;2585;48.696;10.066;2022-12-13T15:13:28;73.60;;;29.00;;
5133;SDS011;2585;48.696;10.066;2022-12-13T15:16:06;51.92;;;22.00;;
5133;SDS011;2585;48.696;10.066;2022-12-13T15:19:10;29.15;;;13.57;;
5133;SDS011;2585;48.696;10.066;2022-12-13T15:22:00;41.28;;;17.00;;
5133;SDS011;2585;48.696;10.066;2022-12-13T15:24:31;39.25;;;17.80;;
5133;SDS011;2585;48.696;10.066;2022-12-13T15:27:04;27.05;;;12.30;;
5133;SDS011;2585;48.696;10.066;2022-12-13T15:29:34;45.80;;;19.00;;
5133;SDS011;2585;48.696;10.066;2022-12-13T15:32:01;38.30;;;14.55;;
5133;SDS011;2585;48.696;10.066;2022-12-13T15:34:31;27.65;;;12.65;;
5133;SDS011;2585;48.696;10.066;2022-12-13T15:37:01;38.03;;;14.88;;
5133;SDS011;2585;48.696;10.066;2022-12-13T15:39:57;32.92;;;14.70;;
5133;SDS011;2585;48.696;10.066;2022-12-13T15:45:01;28.15;;;12.77;;
5133;SDS011;2585;48.696;10.066;2022-12-13T15:47:32;23.27;;;11.38;;
5133;SDS011;2585;48.696;10.066;2022-12-13T15:50:04;24.30;;;12.82;;
5133;SDS011;2585;48.696;10.066;2022-12-13T15:57:34;58.67;;;23.63;;
5133;SDS011;2585;48.696;10.066;2022-12-13T16:02:45;49.30;;;20.73;;
5133;SDS011;2585;48.696;10.066;2022-12-13T16:07:52;28.17;;;17.00;;
5133;SDS011;2585;48.696;10.066;2022-12-13T16:10:22;25.42;;;13.75;;
5133;SDS011;2585;48.696;10.066;2022-12-13T16:12:51;25.27;;;11.77;;
5133;SDS011;2585;48.696;10.066;2022-12-13T16:15:25;28.08;;;14.60;;
5133;SDS011;2585;48.696;10.066;2022-12-13T16:18:42;25.55;;;12.07;;
5133;SDS011;2585;48.696;10.066;2022-12-13T16:20:52;23.77;;;11.32;;
5133;SDS011;2585;48.696;10.066;2022-12-13T16:23:19;20.52;;;10.60;;
5133;SDS011;2585;48.696;10.066;2022-12-13T16:25:52;21.98;;;11.02;;
5133;SDS011;2585;48.696;10.066;2022-12-13T16:28:19;28.52;;;11.93;;
5133;SDS011;2585;48.696;10.066;2022-12-13T16:33:24;30.10;;;14.57;;
5133;SDS011;2585;48.696;10.066;2022-12-13T16:35:53;27.20;;;12.02;;
5133;SDS011;2585;48.696;10.066;2022-12-13T16:38:21;23.88;;;12.63;;
5133;SDS011;2585;48.696;10.066;2022-12-13T16:40:52;35.17;;;14.98;;
5133;SDS011;2585;48.696;10.066;2022-12-13T16:43:22;30.70;;;15.25;;
5133;SDS011;2585;48.696;10.066;2022-12-13T16:45:59;21.40;;;10.80;;
5133;SDS011;2585;48.696;10.066;2022-12-13T16:48:49;21.63;;;10.48;;
5133;SDS011;2585;48.696;10.066;2022-12-13T16:51:16;20.23;;;10.85;;
5133;SDS011;2585;48.696;10.066;2022-12-13T16:53:44;29.85;;;10.75;;
5133;SDS011;2585;48.696;10.066;2022-12-13T16:56:11;33.90;;;14.43;;
5133;SDS011;2585;48.696;10.066;2022-12-13T16:58:41;23.73;;;14.15;;
5133;SDS011;2585;48.696;10.066;2022-12-13T17:01:17;30.05;;;13.15;;
5133;SDS011;2585;48.696;10.066;2022-12-13T17:03:45;35.50;;;13.90;;
5133;SDS011;2585;48.696;10.066;2022-12-13T17:06:13;40.70;;;17.38;;
5133;SDS011;2585;48.696;10.066;2022-12-13T17:08:44;29.38;;;12.73;;
5133;SDS011;2585;48.696;10.066;2022-12-13T17:11:11;28.48;;;12.23;;
5133;SDS011;2585;48.696;10.066;2022-12-13T17:13:43;29.08;;;14.75;;
5133;SDS011;2585;48.696;10.066;2022-12-13T17:16:12;29.45;;;13.55;;
5133;SDS011;2585;48.696;10.066;2022-12-13T17:18:39;33.72;;;15.18;;
5133;SDS011;2585;48.696;10.066;2022-12-13T17:21:07;22.73;;;11.23;;
5133;SDS011;2585;48.696;10.066;2022-12-13T17:23:34;21.23;;;10.90;;
5133;SDS011;2585;48.696;10.066;2022-12-13T17:26:05;24.67;;;12.27;;
5133;SDS011;2585;48.696;10.066;2022-12-13T17:28:33;29.05;;;15.98;;
5133;SDS011;2585;48.696;10.066;2022-12-13T17:31:04;33.13;;;13.75;;
5133;SDS011;2585;48.696;10.066;2022-12-13T17:33:31;63.85;;;20.42;;
5133;SDS011;2585;48.696;10.066;2022-12-13T17:36:04;37.70;;;18.10;;
5133;SDS011;2585;48.696;10.066;2022-12-13T17:38:33;48.05;;;20.85;;
5133;SDS011;2585;48.696;10.066;2022-12-13T17:41:00;27.85;;;14.57;;
5133;SDS011;2585;48.696;10.066;2022-12-13T17:43:27;29.85;;;13.35;;
5133;SDS011;2585;48.696;10.066;2022-12-13T17:48:32;40.15;;;19.10;;